createdAt,value
2022-10-09T00:02:29.642Z,100754.84
2022-10-09T00:05:34.913Z,100756.19
2022-10-09T00:08:40.367Z,100759.63
2022-10-09T00:11:50.315Z,100761.19
2022-10-09T00:14:53.044Z,100761.09
2022-10-09T00:17:55.449Z,100757.44
2022-10-09T00:20:58.124Z,100750.84
2022-10-09T00:24:07.718Z,100752.13
2022-10-09T00:27:09.995Z,100749.06
2022-10-09T00:30:12.150Z,100752.94
2022-10-09T00:33:15.581Z,100747.50
2022-10-09T00:36:26.716Z,100744.78
2022-10-09T00:39:28.689Z,100743.75
2022-10-09T00:42:32.147Z,100732.31
2022-10-09T00:45:43.151Z,100734.63
2022-10-09T00:48:46.322Z,100723.81
2022-10-09T00:51:50.053Z,100727.25
2022-10-09T00:54:53.642Z,100729.22
2022-10-09T00:57:57.698Z,100719.59
2022-10-09T01:01:02.947Z,100720.94
2022-10-09T01:04:06.303Z,100713.56
2022-10-09T01:07:14.871Z,100713.78
2022-10-09T01:10:24.376Z,100707.19
2022-10-09T01:13:27.861Z,100705.53
2022-10-09T01:16:38.658Z,100704.84
2022-10-09T01:19:59.750Z,100703.66
2022-10-09T01:23:20.917Z,100708.09
2022-10-09T01:26:24.050Z,100713.09
2022-10-09T01:29:29.000Z,100716.91
2022-10-09T01:32:36.815Z,100712.00
2022-10-09T01:35:41.333Z,100704.84
2022-10-09T01:38:48.697Z,100702.56
2022-10-09T01:41:52.786Z,100712.44
2022-10-09T01:44:55.657Z,100707.78
2022-10-09T01:48:00.076Z,100709.03
2022-10-09T01:51:04.076Z,100711.50
2022-10-09T01:54:08.294Z,100717.47
2022-10-09T01:57:13.339Z,100719.81
2022-10-09T02:00:18.833Z,100720.66
2022-10-09T02:03:25.557Z,100720.75
2022-10-09T02:06:33.777Z,100715.88
2022-10-09T02:09:37.456Z,100713.59
2022-10-09T02:12:48.085Z,100713.88
2022-10-09T02:16:12.911Z,100721.59
2022-10-09T02:19:20.713Z,100722.75
2022-10-09T02:22:29.508Z,100725.13
2022-10-09T02:25:41.273Z,100716.97
2022-10-09T02:28:49.537Z,100728.16
2022-10-09T02:31:56.005Z,100732.25
2022-10-09T02:34:58.414Z,100731.00
2022-10-09T02:38:00.532Z,100732.75
2022-10-09T02:41:04.931Z,100748.59
2022-10-09T02:44:07.743Z,100741.19
2022-10-09T02:47:12.863Z,100750.09
2022-10-09T02:50:18.024Z,100748.19
2022-10-09T02:53:23.669Z,100748.31
2022-10-09T02:56:30.206Z,100754.69
2022-10-09T02:59:38.053Z,100746.69
2022-10-09T03:02:42.713Z,100759.25
2022-10-09T03:05:46.660Z,100764.69
2022-10-09T03:08:51.252Z,100763.84
2022-10-09T03:11:53.906Z,100768.69
2022-10-09T03:14:56.907Z,100752.03
2022-10-09T03:18:02.562Z,100762.81
2022-10-09T03:21:15.659Z,100756.38
2022-10-09T03:24:24.693Z,100763.38
2022-10-09T03:27:28.556Z,100764.81
2022-10-09T03:30:30.990Z,100776.84
2022-10-09T03:33:39.520Z,100774.22
2022-10-09T03:36:43.180Z,100775.47
2022-10-09T03:39:47.230Z,100773.00
2022-10-09T03:42:52.500Z,100772.03
2022-10-09T03:46:02.220Z,100773.34
2022-10-09T03:49:06.044Z,100771.63
2022-10-09T03:52:14.975Z,100775.03
2022-10-09T03:55:17.948Z,100781.97
2022-10-09T03:58:20.873Z,100779.50
2022-10-09T04:01:26.511Z,100781.41
2022-10-09T04:04:31.287Z,100790.84
2022-10-09T04:07:38.140Z,100788.03
2022-10-09T04:10:44.780Z,100784.69
2022-10-09T04:13:54.752Z,100782.09
2022-10-09T04:16:59.893Z,100784.84
2022-10-09T04:20:03.189Z,100789.13
2022-10-09T04:23:12.191Z,100777.75
2022-10-09T04:26:15.582Z,100771.34
2022-10-09T04:29:22.126Z,100786.75
2022-10-09T04:32:24.692Z,100791.75
2022-10-09T04:35:28.504Z,100795.81
2022-10-09T04:38:33.107Z,100807.16
2022-10-09T04:41:38.540Z,100805.22
2022-10-09T04:44:42.889Z,100813.63
2022-10-09T04:47:45.659Z,100804.88
2022-10-09T04:50:49.486Z,100811.00
2022-10-09T04:53:52.337Z,100822.69
2022-10-09T04:56:54.741Z,100842.12
2022-10-09T04:59:58.033Z,100848.84
2022-10-09T05:03:00.510Z,100846.06
2022-10-09T05:06:06.602Z,100845.97
2022-10-09T05:09:12.958Z,100853.59
2022-10-09T05:12:19.313Z,100844.28
2022-10-09T05:15:22.303Z,100844.06
2022-10-09T05:18:24.528Z,100840.97
2022-10-09T05:21:28.595Z,100842.28
2022-10-09T05:24:34.984Z,100845.75
2022-10-09T05:27:40.139Z,100838.69
2022-10-09T05:30:42.573Z,100842.75
2022-10-09T05:33:44.861Z,100860.56
2022-10-09T05:36:49.182Z,100857.09
2022-10-09T05:39:51.498Z,100859.81
2022-10-09T05:42:53.756Z,100862.44
2022-10-09T05:46:05.280Z,100872.59
2022-10-09T05:49:08.720Z,100871.63
2022-10-09T05:52:11.608Z,100885.72
2022-10-09T05:55:14.394Z,100882.50
2022-10-09T05:58:16.450Z,100887.03
2022-10-09T06:01:19.234Z,100885.38
2022-10-09T06:04:23.418Z,100889.19
2022-10-09T06:07:26.961Z,100891.81
2022-10-09T06:10:32.387Z,100899.22
2022-10-09T06:13:37.266Z,100886.56
2022-10-09T06:16:44.126Z,100903.28
2022-10-09T06:19:49.380Z,100907.34
2022-10-09T06:22:52.908Z,100913.19
2022-10-09T06:26:04.903Z,100915.56
2022-10-09T06:29:08.287Z,100920.94
2022-10-09T06:32:12.022Z,100925.97
2022-10-09T06:35:15.294Z,100931.44
2022-10-09T06:38:19.101Z,100937.41
2022-10-09T06:41:26.071Z,100940.25
2022-10-09T06:44:29.384Z,100936.44
2022-10-09T06:47:32.734Z,100937.97
2022-10-09T06:50:41.326Z,100945.13
2022-10-09T06:53:48.910Z,100945.47
2022-10-09T06:56:54.825Z,100949.31
2022-10-09T06:59:59.739Z,100948.53
2022-10-09T07:03:04.021Z,100959.91
2022-10-09T07:06:11.658Z,100972.13
2022-10-09T07:09:15.425Z,100967.38
2022-10-09T07:12:17.735Z,100959.09
2022-10-09T07:15:21.044Z,100964.16
2022-10-09T07:18:24.505Z,100962.50
2022-10-09T07:21:27.165Z,100967.25
2022-10-09T07:24:30.535Z,100967.16
2022-10-09T07:27:33.906Z,100972.75
2022-10-09T07:30:40.642Z,100973.47
2022-10-09T07:33:44.579Z,100963.63
2022-10-09T07:36:48.907Z,100976.03
2022-10-09T07:39:52.823Z,100980.38
2022-10-09T07:42:57.045Z,100975.22
2022-10-09T07:46:01.427Z,100984.44
2022-10-09T07:49:07.542Z,100986.81
2022-10-09T07:52:10.406Z,100987.41
2022-10-09T07:55:13.358Z,100984.34
2022-10-09T07:58:19.331Z,100986.56
2022-10-09T08:01:24.957Z,100985.31
2022-10-09T08:04:27.671Z,100988.38
2022-10-09T08:07:34.147Z,100982.97
2022-10-09T08:10:37.974Z,100990.88
2022-10-09T08:13:42.035Z,100995.84
2022-10-09T08:16:45.004Z,101001.53
2022-10-09T08:19:50.845Z,101004.31
2022-10-09T08:22:54.142Z,101005.84
2022-10-09T08:25:57.441Z,100998.22
2022-10-09T08:29:01.419Z,101000.03
2022-10-09T08:32:04.612Z,101003.88
2022-10-09T08:35:07.949Z,101005.84
2022-10-09T08:38:25.371Z,101008.34
2022-10-09T08:41:33.863Z,101007.38
2022-10-09T08:44:50.507Z,101014.59
2022-10-09T08:48:05.327Z,101011.22
2022-10-09T08:51:14.719Z,101019.97
2022-10-09T08:54:36.916Z,101020.94
2022-10-09T08:57:40.221Z,101028.75
2022-10-09T09:01:08.234Z,101032.50
2022-10-09T09:04:23.159Z,101034.25
2022-10-09T09:07:40.671Z,101040.34
2022-10-09T09:10:49.507Z,101046.06
2022-10-09T09:14:02.424Z,101044.63
2022-10-09T09:17:13.979Z,101049.41
2022-10-09T09:20:23.344Z,101050.06
2022-10-09T09:23:33.604Z,101046.38
2022-10-09T09:26:36.308Z,101053.16
2022-10-09T09:29:41.964Z,101057.37
2022-10-09T09:32:50.572Z,101054.56
2022-10-09T09:36:00.433Z,101057.47
2022-10-09T09:39:54.273Z,101056.78
2022-10-09T09:42:27.369Z,101060.25
2022-10-09T09:45:30.669Z,101069.19
2022-10-09T09:48:38.515Z,101071.75
2022-10-09T09:51:41.151Z,101062.44
2022-10-09T09:54:48.446Z,101059.72
2022-10-09T09:57:51.851Z,101065.34
2022-10-09T10:00:58.167Z,101063.44
2022-10-09T10:04:03.886Z,101061.78
2022-10-09T10:07:06.904Z,101063.00
2022-10-09T10:10:23.979Z,101069.56
2022-10-09T10:13:47.442Z,101071.69
2022-10-09T10:16:52.230Z,101075.94
2022-10-09T10:19:56.566Z,101069.19
2022-10-09T10:22:59.614Z,101073.09
2022-10-09T10:26:09.327Z,101066.84
2022-10-09T10:29:20.444Z,101067.66
2022-10-09T10:32:41.753Z,101067.47
2022-10-09T10:35:45.279Z,101076.22
2022-10-09T10:38:53.086Z,101070.13
2022-10-09T10:41:58.437Z,101066.06
2022-10-09T10:45:01.375Z,101069.72
2022-10-09T10:48:05.680Z,101063.78
2022-10-09T10:51:14.916Z,101071.69
2022-10-09T10:54:36.332Z,101073.50
2022-10-09T10:57:56.718Z,101070.63
2022-10-09T11:01:00.446Z,101068.63
2022-10-09T11:04:18.424Z,101064.09
2022-10-09T11:07:39.846Z,101066.78
2022-10-09T11:11:13.185Z,101057.81
2022-10-09T11:14:20.036Z,101053.66
2022-10-09T11:17:27.935Z,101054.03
2022-10-09T11:20:44.375Z,101056.47
2022-10-09T11:24:06.718Z,101057.16
2022-10-09T11:27:16.708Z,101056.47
2022-10-09T11:30:22.314Z,101054.44
2022-10-09T11:33:36.815Z,101046.63
2022-10-09T11:36:44.912Z,101048.34
2022-10-09T11:39:48.573Z,101045.41
2022-10-09T11:42:57.605Z,101046.84
2022-10-09T11:46:19.407Z,101050.91
2022-10-09T11:49:22.541Z,101046.87
2022-10-09T11:52:32.693Z,101045.00
2022-10-09T11:55:35.662Z,101037.09
2022-10-09T11:58:39.505Z,101039.63
2022-10-09T12:01:47.289Z,101045.72
2022-10-09T12:04:56.196Z,101034.72
2022-10-09T12:08:15.357Z,101025.75
2022-10-09T12:11:22.915Z,101032.41
2022-10-09T12:14:29.244Z,101022.69
2022-10-09T12:17:35.230Z,101023.91
2022-10-09T12:20:38.007Z,101019.94
2022-10-09T12:23:41.238Z,101023.28
2022-10-09T12:26:43.724Z,101016.41
2022-10-09T12:29:49.232Z,101020.69
2022-10-09T12:32:55.783Z,101022.78
2022-10-09T12:36:04.031Z,101025.97
2022-10-09T12:39:20.532Z,101025.19
2022-10-09T12:42:25.880Z,101017.41
2022-10-09T12:45:31.994Z,101013.41
2022-10-09T12:48:37.709Z,101016.53
2022-10-09T12:51:40.213Z,101018.41
2022-10-09T12:54:45.694Z,101002.53
2022-10-09T12:57:48.969Z,101012.72
2022-10-09T13:00:53.999Z,101007.72
2022-10-09T13:03:58.552Z,100999.31
2022-10-09T13:07:03.565Z,100996.75
2022-10-09T13:10:19.046Z,101001.88
2022-10-09T13:13:28.702Z,100990.97
2022-10-09T13:16:42.258Z,100988.84
2022-10-09T13:19:51.224Z,100991.44
2022-10-09T13:23:02.144Z,100990.00
2022-10-09T13:26:06.071Z,100980.69
2022-10-09T13:29:08.696Z,100990.78
2022-10-09T13:32:13.592Z,100989.72
2022-10-09T13:35:17.624Z,100981.59
2022-10-09T13:38:20.900Z,100979.84
2022-10-09T13:41:26.906Z,100990.44
2022-10-09T13:44:29.558Z,100985.16
2022-10-09T13:47:32.887Z,100977.59
2022-10-09T13:50:37.504Z,100978.69
2022-10-09T13:53:41.131Z,100974.16
2022-10-09T13:56:44.142Z,100966.88
2022-10-09T13:59:46.978Z,100973.38
2022-10-09T14:02:49.286Z,100972.69
2022-10-09T14:05:57.483Z,100970.91
2022-10-09T14:09:00.930Z,100969.47
2022-10-09T14:12:03.972Z,100965.00
2022-10-09T14:15:07.267Z,100969.16
2022-10-09T14:18:10.356Z,100972.25
2022-10-09T14:21:15.945Z,100970.34
2022-10-09T14:24:20.042Z,100968.44
2022-10-09T14:27:22.866Z,100967.06
2022-10-09T14:30:31.026Z,100971.66
2022-10-09T14:33:34.051Z,100976.22
2022-10-09T14:36:39.356Z,100965.19
2022-10-09T14:39:44.295Z,100976.09
2022-10-09T14:42:46.947Z,100971.53
2022-10-09T14:45:50.194Z,100972.13
2022-10-09T14:48:54.848Z,100969.37
2022-10-09T14:51:57.257Z,100967.81
2022-10-09T14:54:59.474Z,100969.06
2022-10-09T14:58:02.226Z,100968.66
2022-10-09T15:01:08.368Z,100972.59
2022-10-09T15:04:11.264Z,100966.75
2022-10-09T15:07:14.447Z,100965.50
2022-10-09T15:10:16.686Z,100969.25
2022-10-09T15:13:20.263Z,100974.72
2022-10-09T15:16:28.193Z,100974.12
2022-10-09T15:19:32.313Z,100973.75
2022-10-09T15:22:35.267Z,100973.34
2022-10-09T15:25:39.772Z,100977.53
2022-10-09T15:28:43.333Z,100984.06
2022-10-09T15:31:46.848Z,100983.50
2022-10-09T15:34:49.766Z,100988.09
2022-10-09T15:37:55.067Z,100982.56
2022-10-09T15:40:58.788Z,100985.72
2022-10-09T15:44:04.635Z,100988.81
2022-10-09T15:47:06.993Z,100988.50
2022-10-09T15:50:13.956Z,100985.72
2022-10-09T15:53:25.514Z,100986.00
2022-10-09T15:56:28.095Z,100989.63
2022-10-09T15:59:31.754Z,100991.84
2022-10-09T16:02:37.857Z,100991.53
2022-10-09T16:05:47.999Z,100994.56
2022-10-09T16:08:55.622Z,100991.66
2022-10-09T16:11:59.089Z,100996.37
2022-10-09T16:15:05.066Z,101001.25
2022-10-09T16:18:08.452Z,101002.22
2022-10-09T16:21:14.308Z,101006.37
2022-10-09T16:24:18.686Z,101006.94
2022-10-09T16:27:25.121Z,101012.87
2022-10-09T16:30:28.369Z,101020.91
2022-10-09T16:33:30.899Z,101020.03
2022-10-09T16:36:33.381Z,101027.53
2022-10-09T16:39:38.178Z,101032.19
2022-10-09T16:42:43.061Z,101035.91
2022-10-09T16:45:45.308Z,101033.59
2022-10-09T16:48:48.737Z,101028.28
2022-10-09T16:51:51.233Z,101041.06
2022-10-09T16:54:58.252Z,101043.87
2022-10-09T16:58:04.123Z,101036.03
2022-10-09T17:01:09.792Z,101050.22
2022-10-09T17:04:13.220Z,101051.41
2022-10-09T17:07:17.291Z,101051.09
2022-10-09T17:10:20.062Z,101059.03
2022-10-09T17:13:22.451Z,101056.53
2022-10-09T17:16:26.568Z,101064.09
2022-10-09T17:19:29.373Z,101061.56
2022-10-09T17:22:33.692Z,101058.47
2022-10-09T17:25:41.292Z,101069.78
2022-10-09T17:28:45.066Z,101065.75
2022-10-09T17:31:48.337Z,101064.19
2022-10-09T17:34:52.088Z,101067.19
2022-10-09T17:37:57.567Z,101066.03
2022-10-09T17:41:00.107Z,101071.41
2022-10-09T17:44:03.340Z,101078.59
2022-10-09T17:47:06.856Z,101087.47
2022-10-09T17:50:09.621Z,101081.34
2022-10-09T17:53:12.497Z,101094.75
2022-10-09T17:56:22.489Z,101080.75
2022-10-09T17:59:25.551Z,101083.84
2022-10-09T18:02:29.674Z,101090.19
2022-10-09T18:05:38.664Z,101085.50
2022-10-09T18:08:44.912Z,101087.06
2022-10-09T18:11:49.839Z,101093.12
2022-10-09T18:14:53.418Z,101083.78
2022-10-09T18:17:56.517Z,101088.94
2022-10-09T18:21:02.467Z,101090.00
2022-10-09T18:24:09.812Z,101094.13
2022-10-09T18:27:11.931Z,101106.81
2022-10-09T18:30:14.233Z,101103.03
2022-10-09T18:33:18.561Z,101106.12
2022-10-09T18:36:22.803Z,101114.25
2022-10-09T18:39:33.010Z,101115.31
2022-10-09T18:42:37.036Z,101116.59
2022-10-09T18:45:45.341Z,101121.34
2022-10-09T18:48:48.302Z,101130.59
2022-10-09T18:51:57.789Z,101128.16
2022-10-09T18:55:03.427Z,101128.63
2022-10-09T18:58:09.630Z,101138.59
2022-10-09T19:01:13.576Z,101137.66
2022-10-09T19:04:18.091Z,101140.88
2022-10-09T19:07:21.527Z,101128.22
2022-10-09T19:10:25.051Z,101127.47
2022-10-09T19:13:31.127Z,101128.84
2022-10-09T19:16:35.010Z,101141.22
2022-10-09T19:19:40.360Z,101141.69
2022-10-09T19:22:48.958Z,101148.25
2022-10-09T19:25:55.347Z,101152.75
2022-10-09T19:28:59.242Z,101152.44
2022-10-09T19:32:03.500Z,101155.56
2022-10-09T19:35:08.601Z,101165.13
2022-10-09T19:38:11.420Z,101159.37
2022-10-09T19:41:18.823Z,101157.72
2022-10-09T19:44:22.321Z,101169.69
2022-10-09T19:47:25.298Z,101170.31
2022-10-09T19:50:34.731Z,101176.19
2022-10-09T19:53:39.629Z,101177.22
2022-10-09T19:56:45.309Z,101183.81
2022-10-09T19:59:48.626Z,101183.00
2022-10-09T20:02:52.135Z,101189.59
2022-10-09T20:05:56.008Z,101185.06
2022-10-09T20:08:59.599Z,101192.66
2022-10-09T20:12:02.638Z,101191.91
2022-10-09T20:15:05.000Z,101204.94
2022-10-09T20:18:08.531Z,101206.91
2022-10-09T20:21:13.353Z,101201.69
2022-10-09T20:24:16.278Z,101204.53
2022-10-09T20:27:18.974Z,101207.88
2022-10-09T20:30:23.427Z,101205.66
2022-10-09T20:33:30.885Z,101209.31
2022-10-09T20:36:39.020Z,101204.62
2022-10-09T20:39:41.048Z,101203.25
2022-10-09T20:42:43.763Z,101209.78
2022-10-09T20:45:48.913Z,101208.66
2022-10-09T20:48:53.500Z,101209.09
2022-10-09T20:51:57.907Z,101220.94
2022-10-09T20:55:00.926Z,101219.03
2022-10-09T20:58:04.085Z,101222.91
2022-10-09T21:01:08.493Z,101215.66
2022-10-09T21:04:15.395Z,101215.00
2022-10-09T21:07:18.424Z,101224.81
2022-10-09T21:10:21.320Z,101223.75
2022-10-09T21:13:25.704Z,101232.00
2022-10-09T21:16:29.613Z,101225.25
2022-10-09T21:19:33.403Z,101231.56
2022-10-09T21:22:36.724Z,101232.75
2022-10-09T21:25:39.015Z,101236.53
2022-10-09T21:28:45.576Z,101234.94
2022-10-09T21:31:50.414Z,101234.59
2022-10-09T21:34:53.505Z,101228.69
2022-10-09T21:37:58.316Z,101227.31
2022-10-09T21:41:01.912Z,101231.28
2022-10-09T21:44:16.213Z,101220.50
2022-10-09T21:47:23.078Z,101221.34
2022-10-09T21:50:38.520Z,101223.44
2022-10-09T21:53:40.835Z,101221.66
2022-10-09T21:56:44.528Z,101217.16
2022-10-09T21:59:55.770Z,101218.81
2022-10-09T22:03:00.104Z,101225.28
2022-10-09T22:06:10.373Z,101216.87
2022-10-09T22:09:20.106Z,101212.41
2022-10-09T22:12:23.350Z,101213.31
2022-10-09T22:15:25.333Z,101218.69
2022-10-09T22:18:27.823Z,101222.88
2022-10-09T22:21:30.333Z,101220.25
2022-10-09T22:24:40.424Z,101223.78
2022-10-09T22:27:42.809Z,101222.22
2022-10-09T22:30:45.892Z,101215.31
2022-10-09T22:33:56.874Z,101222.69
2022-10-09T22:36:58.958Z,101218.00
2022-10-09T22:40:01.743Z,101223.22
2022-10-09T22:43:05.992Z,101224.34
2022-10-09T22:46:10.298Z,101220.34
2022-10-09T22:49:15.014Z,101227.28
2022-10-09T22:52:17.296Z,101230.28
2022-10-09T22:55:20.645Z,101230.84
2022-10-09T22:58:23.781Z,101227.09
2022-10-09T23:01:35.762Z,101232.91
2022-10-09T23:04:39.387Z,101228.59
2022-10-09T23:07:42.772Z,101234.47
2022-10-09T23:10:52.347Z,101239.91
2022-10-09T23:13:56.464Z,101234.78
2022-10-09T23:16:58.630Z,101237.28
2022-10-09T23:20:02.025Z,101246.63
2022-10-09T23:23:05.594Z,101249.63
2022-10-09T23:26:08.944Z,101244.09
2022-10-09T23:29:16.527Z,101250.53
2022-10-09T23:32:18.677Z,101240.72
2022-10-09T23:35:20.719Z,101239.41
2022-10-09T23:38:23.769Z,101239.31
2022-10-09T23:41:29.213Z,101245.56
2022-10-09T23:44:35.076Z,101244.97
2022-10-09T23:47:39.481Z,101252.56
2022-10-09T23:50:41.863Z,101244.16
2022-10-09T23:53:44.635Z,101247.41
2022-10-09T23:56:47.948Z,101249.88
2022-10-09T23:59:50.030Z,101245.56
